Time;durP1;ratioP1;P1;durP2;ratioP2;P2;SDS_P1;SDS_P2;PMS_P1;PMS_P2;Temp;Humidity;BMP_temperature;BMP_pressure;BME280_temperature;BME280_humidity;BME280_pressure;Samples;Min_cycle;Max_cycle;Signal;HPM_P1;HPM_P2
2021/10/11 00:00:24;;;;;;;;;62.50;50.25;;;;;16.15;49.53;102284.66;5101059;27;45315;-55
2021/10/11 00:02:50;;;;;;;;;62.25;49.25;;;;;16.15;49.72;102292.59;5100614;27;45325;-54
2021/10/11 00:05:16;;;;;;;;;65.25;50.75;;;;;16.15;49.64;102281.09;5100680;27;46335;-55
2021/10/11 00:07:42;;;;;;;;;65.50;51.50;;;;;16.15;49.99;102283.75;5100631;27;45466;-55
2021/10/11 00:10:08;;;;;;;;;67.50;53.25;;;;;16.17;49.76;102279.31;5100729;27;45421;-55
2021/10/11 00:12:34;;;;;;;;;60.75;47.50;;;;;16.16;49.90;102277.56;5100425;27;45318;-53
2021/10/11 00:14:59;;;;;;;;;61.75;48.50;;;;;16.15;50.12;102281.09;5100388;27;46337;-54
2021/10/11 00:17:25;;;;;;;;;65.50;52.75;;;;;16.16;49.91;102285.50;5100418;27;45244;-55
2021/10/11 00:19:51;;;;;;;;;60.00;47.75;;;;;16.13;49.84;102270.50;5100851;27;45344;-55
2021/10/11 00:22:21;;;;;;;;;63.75;49.75;;;;;16.15;49.90;102278.44;5100381;27;45535;-55
2021/10/11 00:24:47;;;;;;;;;66.75;53.75;;;;;16.12;50.07;102276.72;5100263;27;46393;-52
2021/10/11 00:27:12;;;;;;;;;62.25;49.00;;;;;16.13;50.01;102282.91;5100222;27;45513;-54
2021/10/11 00:29:38;;;;;;;;;65.75;51.25;;;;;16.11;50.06;102282.03;5100634;27;45343;-51
2021/10/11 00:32:04;;;;;;;;;66.50;52.00;;;;;16.12;50.14;102281.16;5081924;27;45508;-54
2021/10/11 00:34:30;;;;;;;;;56.25;45.75;;;;;16.10;49.84;102278.53;5100121;27;47198;-53
2021/10/11 00:36:56;;;;;;;;;66.75;50.50;;;;;16.08;50.11;102277.66;5100093;27;45339;-54
2021/10/11 00:39:22;;;;;;;;;63.25;50.00;;;;;16.08;49.94;102272.34;5082267;27;45261;-53
2021/10/11 00:41:47;;;;;;;;;66.50;52.00;;;;;16.06;50.23;102283.00;5099872;27;45632;-52
2021/10/11 00:44:13;;;;;;;;;62.00;49.75;;;;;16.06;50.07;102287.41;5100081;27;45312;-52
2021/10/11 00:46:38;;;;;;;;;59.75;49.25;;;;;16.03;50.48;102272.41;5100001;27;45455;-54
2021/10/11 00:49:04;;;;;;;;;61.00;48.75;;;;;16.00;50.32;102268.91;5100307;27;45345;-54
2021/10/11 00:51:29;;;;;;;;;61.75;49.75;;;;;16.00;50.39;102274.22;5100005;27;45339;-54
2021/10/11 00:53:55;;;;;;;;;70.75;55.00;;;;;15.96;50.32;102272.50;5099888;27;45971;-53
2021/10/11 00:56:21;;;;;;;;;65.50;52.25;;;;;15.98;50.00;102273.38;5081397;27;45418;-53
2021/10/11 00:58:46;;;;;;;;;66.50;50.50;;;;;15.96;50.64;102275.16;5099927;27;45238;-54
2021/10/11 01:01:12;;;;;;;;;63.25;49.75;;;;;15.95;50.11;102286.66;5081613;27;45373;-53
2021/10/11 01:03:37;;;;;;;;;60.00;48.25;;;;;15.92;50.42;102285.81;5099800;27;46102;-54
2021/10/11 01:06:03;;;;;;;;;66.75;51.50;;;;;15.90;50.46;102279.63;5099835;27;45315;-54
2021/10/11 01:08:29;;;;;;;;;63.25;50.25;;;;;15.88;50.19;102283.22;5100475;27;45432;-54
2021/10/11 01:10:55;;;;;;;;;63.00;50.25;;;;;15.85;50.55;102273.53;5103318;27;45449;-53
2021/10/11 01:13:21;;;;;;;;;63.00;50.50;;;;;15.85;50.62;102270.88;5102005;27;47766;-54
2021/10/11 01:15:46;;;;;;;;;64.75;50.75;;;;;15.82;50.70;102270.88;5084956;27;45464;-55
2021/10/11 01:18:11;;;;;;;;;65.00;51.25;;;;;15.81;50.61;102276.19;5103731;27;45133;-54
2021/10/11 01:20:37;;;;;;;;;64.75;51.25;;;;;15.80;50.81;102274.41;5103404;27;45325;-55
2021/10/11 01:23:02;;;;;;;;;58.00;46.25;;;;;15.77;50.52;102272.69;5103362;27;45258;-55
2021/10/11 01:25:28;;;;;;;;;60.50;48.25;;;;;15.74;50.87;102270.94;5103094;27;45810;-55
2021/10/11 01:27:53;;;;;;;;;63.00;49.75;;;;;15.73;50.58;102268.31;5103320;27;45489;-55
2021/10/11 01:30:19;;;;;;;;;63.50;49.25;;;;;15.70;50.43;102269.25;5103144;27;45432;-55
2021/10/11 01:32:45;;;;;;;;;67.50;53.00;;;;;15.69;50.82;102271.91;5084708;27;47258;-54
2021/10/11 01:35:12;;;;;;;;;64.25;52.00;;;;;15.65;51.06;102260.47;5099631;27;45322;-54
2021/10/11 01:37:38;;;;;;;;;63.25;50.25;;;;;15.64;50.77;102271.09;5103114;27;45437;-54
2021/10/11 01:40:05;;;;;;;;;62.25;49.75;;;;;15.62;50.63;102275.50;5084376;27;45496;-54
2021/10/11 01:42:31;;;;;;;;;53.75;42.75;;;;;15.56;50.91;102277.34;5103013;27;46289;-54
2021/10/11 01:44:56;;;;;;;;;62.50;49.00;;;;;15.54;50.68;102273.81;5102783;27;45236;-55
2021/10/11 01:47:26;;;;;;;;;59.75;49.00;;;;;15.46;50.57;102259.78;5103133;27;45203;-54
2021/10/11 01:49:53;;;;;;;;;64.75;51.25;;;;;15.54;51.35;102275.59;5084266;27;45507;-54
2021/10/11 01:52:18;;;;;;;;;61.25;48.50;;;;;15.53;51.05;102265.91;5102826;27;48364;-54
2021/10/11 01:54:44;;;;;;;;;70.75;54.00;;;;;15.51;50.76;102265.91;5102453;27;45827;-54
2021/10/11 01:57:11;;;;;;;;;66.75;51.00;;;;;15.50;51.07;102264.16;5102852;27;45267;-55
2021/10/11 01:59:36;;;;;;;;;68.50;52.50;;;;;15.49;51.39;102258.88;5102400;27;45450;-54
2021/10/11 02:02:03;;;;;;;;;65.25;51.25;;;;;15.48;51.50;102255.34;5084187;27;45994;-55
2021/10/11 02:04:29;;;;;;;;;67.75;51.75;;;;;15.48;51.06;102262.41;5102533;27;45341;-55
2021/10/11 02:06:55;;;;;;;;;66.50;52.75;;;;;15.46;50.96;102256.25;5102834;27;45381;-54
2021/10/11 02:09:20;;;;;;;;;68.25;54.00;;;;;15.47;51.19;102263.31;5102535;27;45299;-54
2021/10/11 02:11:46;;;;;;;;;67.00;55.75;;;;;15.46;51.44;102270.38;5102320;27;46015;-55
2021/10/11 02:14:11;;;;;;;;;65.75;51.25;;;;;15.46;51.85;102265.09;5102254;27;45374;-55
2021/10/11 02:16:36;;;;;;;;;68.75;52.25;;;;;15.47;51.40;102260.66;5084472;27;45277;-55
2021/10/11 02:19:02;;;;;;;;;65.75;51.50;;;;;15.45;51.66;102260.69;5102147;27;45358;-54
2021/10/11 02:21:28;;;;;;;;;65.25;49.00;;;;;15.48;51.92;102263.28;5102101;27;46557;-55
2021/10/11 02:23:53;;;;;;;;;66.00;49.50;;;;;15.48;51.98;102262.41;5102196;27;45484;-54
2021/10/11 02:26:18;;;;;;;;;63.00;47.75;;;;;15.48;51.58;102255.34;5102285;27;45180;-55
2021/10/11 02:28:44;;;;;;;;;64.75;49.25;;;;;15.48;51.73;102258.00;5102014;27;45500;-54
2021/10/11 02:31:09;;;;;;;;;63.50;49.75;;;;;15.50;51.99;102263.28;5102260;27;46293;-53
2021/10/11 02:33:35;;;;;;;;;63.25;47.75;;;;;15.50;51.86;102261.50;5101996;27;45211;-55
2021/10/11 02:36:01;;;;;;;;;64.75;50.75;;;;;15.50;52.25;102260.66;5102362;27;45382;-54
2021/10/11 02:38:26;;;;;;;;;63.75;50.75;;;;;15.52;52.38;102261.50;5101825;27;45541;-53
2021/10/11 02:40:51;;;;;;;;;58.25;47.25;;;;;15.53;52.03;102261.47;5101936;27;46014;-52
2021/10/11 02:43:16;;;;;;;;;60.25;46.50;;;;;15.54;52.47;102249.09;5101700;27;45246;-55
2021/10/11 02:45:42;;;;;;;;;62.75;49.50;;;;;15.54;52.48;102249.97;5102195;27;45338;-54
2021/10/11 02:48:07;;;;;;;;;62.25;48.75;;;;;15.56;52.24;102237.59;5101697;27;45511;-55
2021/10/11 02:50:33;;;;;;;;;63.50;48.25;;;;;15.55;52.51;102238.50;5101712;27;45324;-54
2021/10/11 02:52:58;;;;;;;;;59.75;48.50;;;;;15.56;52.49;102240.25;5083455;27;45225;-55
2021/10/11 02:55:23;;;;;;;;;59.00;47.00;;;;;15.60;52.44;102247.25;5101841;27;45287;-55
2021/10/11 02:57:49;;;;;;;;;63.00;49.25;;;;;15.62;52.24;102238.41;5083037;27;45465;-55
2021/10/11 03:00:14;;;;;;;;;60.50;47.00;;;;;15.62;52.22;102239.28;5101673;27;46110;-54
2021/10/11 03:02:40;;;;;;;;;63.00;49.25;;;;;15.64;52.23;102236.66;5101695;27;45728;-54
2021/10/11 03:05:05;;;;;;;;;63.00;50.00;;;;;15.63;52.41;102230.44;5101822;27;45477;-54
2021/10/11 03:07:31;;;;;;;;;64.75;50.00;;;;;15.64;52.54;102220.75;5101630;27;45422;-54
2021/10/11 03:09:56;;;;;;;;;67.50;51.75;;;;;15.67;52.90;102220.69;5101413;27;46312;-55
2021/10/11 03:12:22;;;;;;;;;61.25;47.00;;;;;15.68;52.80;102220.66;5101383;27;45339;-55
2021/10/11 03:14:47;;;;;;;;;64.00;49.25;;;;;15.69;52.52;102230.38;5101639;27;45342;-55
2021/10/11 03:17:13;;;;;;;;;60.50;47.25;;;;;15.62;52.47;102218.09;5101403;27;45356;-54
2021/10/11 03:19:38;;;;;;;;;66.00;51.50;;;;;15.73;52.53;102236.53;5101184;27;45505;-55
2021/10/11 03:22:03;;;;;;;;;57.75;47.75;;;;;15.73;52.96;102231.22;5101403;27;45259;-55
2021/10/11 03:24:29;;;;;;;;;62.50;49.00;;;;;15.74;52.86;102225.03;5082944;27;45430;-56
2021/10/11 03:26:55;;;;;;;;;63.50;49.00;;;;;15.75;52.55;102232.09;5101130;27;45320;-56
2021/10/11 03:29:20;;;;;;;;;60.25;47.75;;;;;15.77;53.04;102238.22;5101193;27;46309;-56
2021/10/11 03:31:45;;;;;;;;;62.75;48.75;;;;;15.77;52.88;102235.59;5100384;27;45430;-56
2021/10/11 03:34:12;;;;;;;;;64.00;49.25;;;;;15.78;53.11;102240.00;5101193;27;45563;-55
2021/10/11 03:36:39;;;;;;;;;62.75;49.25;;;;;15.77;53.17;102243.53;5101268;27;45220;-56
2021/10/11 03:39:06;;;;;;;;;62.00;50.00;;;;;15.77;53.28;102239.13;5100805;27;46333;-56
2021/10/11 03:41:32;;;;;;;;;61.00;47.75;;;;;15.80;52.99;102240.88;5100838;27;45469;-55
2021/10/11 03:43:57;;;;;;;;;66.00;49.75;;;;;15.81;53.35;102245.28;5082617;27;45333;-56
2021/10/11 03:46:23;;;;;;;;;61.50;48.25;;;;;15.81;53.21;102239.97;5101072;27;45296;-56
2021/10/11 03:48:48;;;;;;;;;64.75;48.00;;;;;15.83;53.08;102240.84;5100718;27;45327;-56
2021/10/11 03:51:13;;;;;;;;;64.25;48.75;;;;;15.84;53.30;102245.25;5100800;27;45284;-56
2021/10/11 03:53:39;;;;;;;;;61.25;49.25;;;;;15.84;52.96;102239.94;5101090;27;45205;-56
2021/10/11 03:56:04;;;;;;;;;58.75;46.75;;;;;15.82;53.41;102241.72;5100619;27;45259;-56
2021/10/11 03:58:29;;;;;;;;;61.75;49.50;;;;;15.86;53.22;102246.13;5081979;27;46165;-56
2021/10/11 04:00:55;;;;;;;;;61.50;47.50;;;;;15.88;53.48;102248.75;5100707;27;45177;-56
2021/10/11 04:03:20;;;;;;;;;62.25;49.00;;;;;15.88;53.04;102259.34;5100965;27;45312;-56
2021/10/11 04:05:45;;;;;;;;;61.50;48.50;;;;;15.88;53.20;102249.59;5100796;27;45502;-54
2021/10/11 04:08:17;;;;;;;;;61.25;47.00;;;;;15.88;53.38;102246.09;5100568;27;46012;-56
2021/10/11 04:10:58;;;;;;;;;62.00;48.50;;;;;15.89;53.32;102248.72;5100489;27;45370;-55
2021/10/11 04:13:24;;;;;;;;;57.00;44.25;;;;;15.90;53.66;102244.31;5100560;27;45358;-56
2021/10/11 04:15:49;;;;;;;;;58.75;44.00;;;;;15.91;53.39;102238.09;5100431;27;45546;-56
2021/10/11 04:18:17;;;;;;;;;59.00;44.50;;;;;15.93;53.28;102246.91;5100473;27;46311;-56
2021/10/11 04:20:44;;;;;;;;;53.25;42.50;;;;;15.92;53.54;102242.50;5100412;27;45449;-56
2021/10/11 04:23:09;;;;;;;;;58.25;45.00;;;;;15.93;53.75;102246.91;5100575;27;45251;-56
2021/10/11 04:25:35;;;;;;;;;53.75;43.50;;;;;15.96;53.47;102256.59;5100116;27;45190;-56
2021/10/11 04:28:00;;;;;;;;;50.75;42.25;;;;;15.95;53.40;102253.09;5100447;27;45201;-56
2021/10/11 04:30:25;;;;;;;;;54.50;43.50;;;;;15.95;53.55;102241.59;5064352;27;45258;-57
2021/10/11 04:32:51;;;;;;;;;48.50;39.25;;;;;15.98;53.58;102236.25;5100568;27;45301;-56
2021/10/11 04:35:16;;;;;;;;;50.25;40.25;;;;;15.99;53.68;102249.50;5100249;27;45214;-56
2021/10/11 04:37:42;;;;;;;;;48.50;40.50;;;;;16.00;53.44;102250.34;5100232;27;45396;-55
2021/10/11 04:40:09;;;;;;;;;52.75;42.00;;;;;16.01;53.68;102242.41;5099954;27;45244;-56
2021/10/11 04:42:35;;;;;;;;;50.75;39.25;;;;;16.01;53.75;102255.66;5100604;27;45411;-57
2021/10/11 04:45:00;;;;;;;;;47.50;39.75;;;;;16.03;53.82;102242.38;5103964;27;45324;-56
2021/10/11 04:47:26;;;;;;;;;45.50;36.75;;;;;16.04;53.47;102254.75;5104085;27;45448;-55
2021/10/11 04:49:51;;;;;;;;;48.75;37.50;;;;;16.05;53.63;102248.50;5103624;27;45457;-56
2021/10/11 04:52:16;;;;;;;;;52.50;43.50;;;;;16.05;53.71;102253.81;5104058;27;45402;-56
2021/10/11 04:54:42;;;;;;;;;38.50;32.50;;;;;16.06;54.03;102261.78;5103399;27;45430;-56
2021/10/11 04:57:07;;;;;;;;;41.25;34.00;;;;;16.06;53.85;102260.88;5103557;27;45305;-56
2021/10/11 04:59:32;;;;;;;;;40.75;33.00;;;;;16.06;53.95;102267.06;5103394;27;45271;-56
2021/10/11 05:01:58;;;;;;;;;42.00;35.50;;;;;16.07;53.97;102267.94;5103954;27;45418;-56
2021/10/11 05:04:23;;;;;;;;;38.75;33.25;;;;;16.04;53.81;102263.56;5103481;27;45467;-56
2021/10/11 05:06:48;;;;;;;;;36.25;32.75;;;;;16.05;53.71;102261.78;5103393;27;46126;-56
2021/10/11 05:09:13;;;;;;;;;37.00;31.75;;;;;16.07;53.98;102267.94;5084985;27;45320;-56
2021/10/11 05:11:39;;;;;;;;;34.00;29.50;;;;;16.03;53.83;102256.50;5103435;27;45248;-56
2021/10/11 05:14:04;;;;;;;;;24.75;19.50;;;;;16.06;53.99;102260.88;5103301;27;45405;-54
2021/10/11 05:16:32;;;;;;;;;33.25;26.75;;;;;16.02;54.15;102259.16;5103230;27;46022;-54
2021/10/11 05:18:57;;;;;;;;;29.25;25.50;;;;;16.05;54.02;102257.38;5085331;27;45243;-55
2021/10/11 05:21:23;;;;;;;;;34.50;28.50;;;;;16.03;53.96;102260.94;5103374;27;45208;-55
2021/10/11 05:23:49;;;;;;;;;31.75;24.50;;;;;16.01;54.03;102265.38;5084700;27;45512;-55
2021/10/11 05:26:14;;;;;;;;;31.25;26.50;;;;;16.01;54.10;102273.31;5102879;27;45375;-55
2021/10/11 05:28:40;;;;;;;;;27.75;24.50;;;;;16.00;53.88;102276.88;5102969;27;45451;-55
2021/10/11 05:31:07;;;;;;;;;28.25;26.00;;;;;16.00;54.11;102266.25;5103383;27;45303;-55
2021/10/11 05:33:33;;;;;;;;;24.75;23.75;;;;;15.98;53.78;102257.47;5102977;27;45414;-56
2021/10/11 05:35:59;;;;;;;;;27.00;21.00;;;;;15.98;54.32;102273.38;5102957;27;45263;-56
2021/10/11 05:38:25;;;;;;;;;29.75;28.00;;;;;15.96;54.18;102267.19;5102873;27;45242;-55
2021/10/11 05:40:51;;;;;;;;;27.75;25.00;;;;;15.95;54.21;102271.63;5102929;27;45430;-56
2021/10/11 05:43:16;;;;;;;;;23.75;23.50;;;;;15.95;54.30;102289.31;5102683;27;45252;-55
2021/10/11 05:45:41;;;;;;;;;27.75;22.50;;;;;15.92;54.06;102274.31;5103072;27;45269;-56
2021/10/11 05:48:07;;;;;;;;;30.50;26.25;;;;;15.91;53.82;102277.84;5102650;27;45228;-55
2021/10/11 05:50:32;;;;;;;;;25.00;25.00;;;;;15.92;54.11;102280.50;5084501;27;45415;-56
2021/10/11 05:52:58;;;;;;;;;24.25;21.75;;;;;15.92;54.34;102282.25;5102807;27;45234;-56
2021/10/11 05:55:23;;;;;;;;;21.00;21.00;;;;;15.91;54.15;102280.50;5101605;27;46671;-55
2021/10/11 05:57:49;;;;;;;;;27.00;22.75;;;;;15.91;54.21;102280.50;5102145;27;45448;-54
2021/10/11 06:00:15;;;;;;;;;24.25;20.50;;;;;15.88;54.03;102284.06;5102957;27;45327;-55
2021/10/11 06:02:40;;;;;;;;;23.50;21.00;;;;;15.89;54.21;102292.91;5102826;27;45488;-56
2021/10/11 06:05:06;;;;;;;;;24.00;21.25;;;;;15.88;54.51;102296.47;5102491;27;45421;-56
2021/10/11 06:07:32;;;;;;;;;22.00;21.25;;;;;15.88;54.12;102307.94;5101221;27;45270;-55
2021/10/11 06:09:57;;;;;;;;;21.00;18.75;;;;;15.89;54.48;102298.22;5080866;28;45346;-56
2021/10/11 06:12:23;;;;;;;;;27.00;21.25;;;;;15.87;54.47;102298.25;5096691;27;45456;-55
2021/10/11 06:14:52;;;;;;;;;25.25;24.25;;;;;15.87;54.45;102303.56;5102448;27;46985;-55
2021/10/11 06:17:18;;;;;;;;;21.25;18.25;;;;;15.87;54.45;102311.50;5102159;27;45240;-56
2021/10/11 06:19:43;;;;;;;;;21.50;20.50;;;;;15.86;54.03;102317.69;5102614;27;45310;-55
2021/10/11 06:22:08;;;;;;;;;16.50;16.25;;;;;15.84;54.14;102316.81;5102464;27;45662;-54
2021/10/11 06:24:34;;;;;;;;;19.75;19.75;;;;;15.84;54.28;102313.31;5102085;27;45399;-55
2021/10/11 06:26:59;;;;;;;;;19.00;16.00;;;;;15.83;54.09;102312.41;5102074;27;45340;-54
2021/10/11 06:29:24;;;;;;;;;19.75;18.25;;;;;15.83;54.24;102322.16;5102321;27;45302;-55
2021/10/11 06:31:50;;;;;;;;;20.50;17.50;;;;;15.82;54.41;102326.56;5102163;27;45431;-54
2021/10/11 06:34:15;;;;;;;;;19.50;19.00;;;;;15.79;54.15;102325.69;5102027;27;46422;-55
2021/10/11 06:36:40;;;;;;;;;17.00;16.00;;;;;15.81;54.72;102319.50;5102086;27;45271;-55
2021/10/11 06:39:06;;;;;;;;;18.75;17.25;;;;;15.79;54.50;102323.06;5102604;27;45307;-53
2021/10/11 06:41:31;;;;;;;;;22.50;18.00;;;;;15.77;54.39;102321.28;5101922;27;45440;-54
2021/10/11 06:43:57;;;;;;;;;19.75;19.75;;;;;15.80;54.32;102327.44;5101947;27;46391;-54
2021/10/11 06:46:23;;;;;;;;;22.25;16.75;;;;;15.74;54.54;102318.66;5102188;27;45284;-53
2021/10/11 06:48:49;;;;;;;;;20.50;19.00;;;;;15.77;54.72;102325.69;5102020;27;45327;-55
2021/10/11 06:51:14;;;;;;;;;21.25;15.75;;;;;15.67;54.44;102311.69;5102102;27;45235;-55
2021/10/11 06:53:40;;;;;;;;;21.00;19.00;;;;;15.75;54.23;102328.38;5101912;27;45286;-56
2021/10/11 06:56:05;;;;;;;;;23.50;17.50;;;;;15.72;54.33;102328.41;5101562;27;45249;-55
2021/10/11 06:58:31;;;;;;;;;19.25;14.25;;;;;15.74;54.53;102339.00;5101588;27;45290;-56
2021/10/11 07:00:56;;;;;;;;;17.50;14.50;;;;;15.74;54.41;102331.91;5101824;27;45517;-56
2021/10/11 07:03:25;;;;;;;;;13.25;12.75;;;;;15.75;54.45;102335.44;5101862;27;45216;-55
2021/10/11 07:06:00;;;;;;;;;16.00;14.25;;;;;15.72;54.54;102335.47;5100943;27;45343;-55
2021/10/11 07:08:25;;;;;;;;;17.25;16.50;;;;;15.71;54.34;102328.41;5101265;27;45359;-54
2021/10/11 07:10:54;;;;;;;;;13.50;10.50;;;;;15.72;54.50;102335.47;5101248;27;45417;-55
2021/10/11 07:13:21;;;;;;;;;18.50;16.25;;;;;15.73;54.59;102339.88;5101437;27;46285;-56
2021/10/11 07:15:46;;;;;;;;;15.00;15.00;;;;;15.72;54.08;102339.00;5101469;27;45188;-56
2021/10/11 07:18:11;;;;;;;;;19.50;15.50;;;;;15.72;54.43;102339.00;5101327;27;45472;-54
2021/10/11 07:20:42;;;;;;;;;13.75;13.25;;;;;15.70;54.67;102338.13;5101422;27;45436;-56
2021/10/11 07:23:08;;;;;;;;;15.50;13.00;;;;;15.73;54.73;102347.84;5101166;27;46286;-55
2021/10/11 07:25:33;;;;;;;;;16.00;14.00;;;;;15.72;54.20;102346.06;5101039;27;45302;-56
2021/10/11 07:27:59;;;;;;;;;18.00;13.75;;;;;15.73;54.28;102348.69;5083048;27;45466;-56
2021/10/11 07:30:24;;;;;;;;;18.75;16.50;;;;;15.72;54.19;102354.91;5101197;27;45386;-56
2021/10/11 07:32:50;;;;;;;;;18.00;15.25;;;;;15.74;54.37;102358.41;5101238;27;46084;-55
2021/10/11 07:35:15;;;;;;;;;15.75;14.25;;;;;15.75;54.59;102368.13;5100983;27;45236;-56
2021/10/11 07:37:41;;;;;;;;;13.75;11.25;;;;;15.76;54.47;102369.88;5101359;27;45336;-56
2021/10/11 07:40:06;;;;;;;;;15.50;11.75;;;;;15.76;54.65;102374.31;5100915;27;45219;-57
2021/10/11 07:42:32;;;;;;;;;11.75;10.50;;;;;15.74;54.43;102369.00;5101037;27;46442;-56
2021/10/11 07:44:57;;;;;;;;;14.50;14.00;;;;;15.77;54.76;102389.31;5100979;27;45272;-56
2021/10/11 07:47:22;;;;;;;;;17.00;13.00;;;;;15.77;54.25;102387.56;5101173;27;45224;-55
2021/10/11 07:49:48;;;;;;;;;11.75;10.00;;;;;15.78;54.22;102383.13;5101005;27;45427;-56
2021/10/11 07:52:13;;;;;;;;;14.25;13.25;;;;;15.80;54.69;102386.63;5100856;27;47288;-55
2021/10/11 07:54:38;;;;;;;;;17.75;13.75;;;;;15.82;54.50;102394.59;5100761;27;45157;-55
2021/10/11 07:57:04;;;;;;;;;13.50;11.75;;;;;15.83;54.61;102386.63;5100862;27;45379;-55
2021/10/11 07:59:29;;;;;;;;;8.50;7.50;;;;;15.83;54.52;102376.03;5100616;27;45399;-56
2021/10/11 08:01:56;;;;;;;;;13.75;12.00;;;;;15.86;54.58;102378.66;5100946;27;45694;-55
2021/10/11 08:04:21;;;;;;;;;13.50;10.00;;;;;15.86;54.39;102377.75;5100808;27;45347;-56
2021/10/11 08:06:46;;;;;;;;;10.00;10.00;;;;;15.90;54.35;102384.81;5101017;27;45338;-56
2021/10/11 08:09:12;;;;;;;;;11.25;10.00;;;;;15.85;54.53;102368.94;5100757;27;45589;-56
2021/10/11 08:11:39;;;;;;;;;11.50;9.00;;;;;15.96;54.51;102392.72;5100330;27;46069;-54
2021/10/11 08:14:05;;;;;;;;;13.25;10.00;;;;;15.97;54.55;102390.91;5100405;27;45463;-56
2021/10/11 08:16:30;;;;;;;;;14.50;11.50;;;;;15.93;54.30;102372.38;5100714;27;45408;-56
2021/10/11 08:18:56;;;;;;;;;9.50;7.25;;;;;16.01;54.59;102395.28;5100024;27;45442;-56
2021/10/11 08:21:21;;;;;;;;;11.00;7.50;;;;;16.06;54.28;102398.75;5082121;27;46147;-56
2021/10/11 08:23:51;;;;;;;;;8.50;7.00;;;;;16.09;54.20;102401.41;5100504;27;45426;-56
2021/10/11 08:26:17;;;;;;;;;8.25;8.25;;;;;16.14;54.28;102403.97;5100551;27;45391;-55
2021/10/11 08:28:42;;;;;;;;;11.75;8.75;;;;;16.18;54.42;102398.63;5100189;27;45385;-56
2021/10/11 08:31:07;;;;;;;;;8.75;8.25;;;;;16.21;54.52;102398.63;5100452;27;46835;-54
2021/10/11 08:33:33;;;;;;;;;8.00;6.75;;;;;16.25;54.41;102395.03;5100484;27;45330;-56
2021/10/11 08:36:01;;;;;;;;;7.25;7.25;;;;;16.31;54.32;102393.19;5100389;27;45333;-56
2021/10/11 08:38:26;;;;;;;;;7.75;7.75;;;;;16.37;54.47;102393.97;5100058;27;45427;-56
2021/10/11 08:40:52;;;;;;;;;8.25;6.75;;;;;16.42;54.22;102392.16;5099814;27;45329;-56
2021/10/11 08:43:18;;;;;;;;;11.00;9.00;;;;;16.47;54.35;102388.59;5099841;27;45185;-55
2021/10/11 08:45:46;;;;;;;;;8.25;6.75;;;;;16.56;54.37;102396.41;5100359;27;45174;-56
2021/10/11 08:48:12;;;;;;;;;11.50;6.75;;;;;16.64;54.28;102401.63;5081547;27;45323;-57
2021/10/11 08:50:37;;;;;;;;;14.00;8.75;;;;;16.72;54.10;102399.75;5099733;27;46332;-56
2021/10/11 08:53:03;;;;;;;;;11.25;8.50;;;;;16.79;54.16;102398.78;5081844;27;45477;-56
2021/10/11 08:55:29;;;;;;;;;7.50;5.25;;;;;16.86;54.02;102399.56;5099932;27;45161;-57
2021/10/11 08:58:07;;;;;;;;;6.00;5.00;;;;;16.96;53.91;102408.31;5099656;27;45407;-56
2021/10/11 09:00:35;;;;;;;;;6.00;5.00;;;;;17.03;53.84;102400.22;5099852;27;47231;-56
2021/10/11 09:03:02;;;;;;;;;7.25;6.50;;;;;17.12;54.12;102408.94;5081397;27;46044;-56
2021/10/11 09:05:34;;;;;;;;;4.25;4.25;;;;;17.19;53.97;102414.16;5099865;27;45502;-56
2021/10/11 09:08:15;;;;;;;;;5.00;3.50;;;;;17.28;53.88;102413.13;5099865;27;45365;-57
2021/10/11 09:10:53;;;;;;;;;4.00;4.00;;;;;17.38;53.74;102417.38;5099557;27;46437;-56
2021/10/11 09:13:21;;;;;;;;;5.75;4.25;;;;;17.47;53.76;102416.38;5099509;27;45430;-56
2021/10/11 09:15:50;;;;;;;;;4.75;3.50;;;;;17.57;53.84;102411.75;5074882;27;45342;-56
2021/10/11 09:18:27;;;;;;;;;4.50;2.75;;;;;17.66;53.54;102418.69;5099789;27;45411;-56
2021/10/11 09:20:53;;;;;;;;;5.25;2.00;;;;;17.74;53.55;102410.59;5099485;27;46934;-56
2021/10/11 09:23:19;;;;;;;;;3.25;3.25;;;;;17.83;53.39;102410.44;5099859;27;45232;-56
2021/10/11 09:25:45;;;;;;;;;5.50;3.00;;;;;17.95;53.35;102412.00;5099547;27;45375;-56
2021/10/11 09:28:16;;;;;;;;;6.00;5.00;;;;;18.04;53.41;102422.50;5099628;27;45251;-57
2021/10/11 09:30:43;;;;;;;;;7.75;4.50;;;;;18.16;53.39;102419.59;5101397;27;46103;-57
2021/10/11 09:33:12;;;;;;;;;6.75;4.00;;;;;18.27;53.30;102415.84;5102904;27;45614;-57
2021/10/11 09:35:38;;;;;;;;;4.75;3.00;;;;;18.40;53.11;102417.34;5102895;27;45325;-57
2021/10/11 09:38:15;;;;;;;;;2.75;2.75;;;;;18.51;53.25;102409.13;5084502;27;45414;-56
2021/10/11 09:40:42;;;;;;;;;3.50;3.00;;;;;18.64;53.16;102404.41;5102317;27;45217;-57
2021/10/11 09:43:15;;;;;;;;;4.00;2.75;;;;;18.77;53.29;102400.56;5102677;27;45430;-57
2021/10/11 09:45:41;;;;;;;;;8.25;4.75;;;;;18.89;53.01;102399.41;5102990;27;45280;-57
2021/10/11 09:48:07;;;;;;;;;6.00;3.00;;;;;19.03;52.63;102387.59;5102693;27;45170;-58
2021/10/11 09:50:33;;;;;;;;;6.00;4.00;;;;;19.13;52.71;102386.47;5102668;27;45301;-56
2021/10/11 09:52:59;;;;;;;;;5.25;2.00;;;;;19.27;52.54;102387.03;5102809;27;45606;-57
2021/10/11 09:55:25;;;;;;;;;10.50;9.00;;;;;19.39;52.67;102388.50;5102555;27;45410;-57
2021/10/11 09:57:50;;;;;;;;;3.50;3.00;;;;;19.48;52.29;102393.59;5102357;27;45415;-56
2021/10/11 10:00:16;;;;;;;;;5.25;4.00;;;;;19.61;52.33;102391.50;5102674;27;45638;-57
2021/10/11 10:02:45;;;;;;;;;4.75;3.00;;;;;19.71;52.34;102389.47;5102594;27;45363;-56
2021/10/11 10:05:23;;;;;;;;;4.00;1.75;;;;;19.80;51.79;102383.88;5102541;27;45169;-57
2021/10/11 10:07:52;;;;;;;;;3.25;3.00;;;;;19.92;52.29;102385.38;5102309;27;45379;-56
2021/10/11 10:10:21;;;;;;;;;2.00;2.00;;;;;20.02;52.16;102382.44;5083769;27;46406;-56
2021/10/11 10:12:47;;;;;;;;;3.00;2.25;;;;;20.04;51.42;102373.47;5102326;27;45352;-55
2021/10/11 10:15:26;;;;;;;;;3.00;3.00;;;;;20.19;51.26;102392.63;5102619;27;45174;-57
2021/10/11 10:18:00;;;;;;;;;5.50;2.00;;;;;20.27;51.57;102387.94;5101977;27;45527;-57
2021/10/11 10:20:25;;;;;;;;;2.00;1.25;;;;;20.34;51.59;102392.19;5102136;27;45340;-56
2021/10/11 10:22:52;;;;;;;;;2.00;2.00;;;;;20.39;51.21;102379.59;5102349;27;45337;-57
2021/10/11 10:25:18;;;;;;;;;3.75;2.00;;;;;20.48;51.18;102378.44;5102061;27;45463;-57
2021/10/11 10:27:44;;;;;;;;;2.75;2.00;;;;;20.57;50.65;102378.16;5102265;27;45315;-58
2021/10/11 10:30:17;;;;;;;;;4.00;4.00;;;;;20.66;50.60;102382.34;5101945;27;46161;-57
2021/10/11 10:33:04;;;;;;;;;2.00;2.00;;;;;20.75;50.74;102383.88;5102124;27;45263;-57
2021/10/11 10:35:35;;;;;;;;;2.75;2.75;;;;;20.83;50.67;102391.66;5102023;27;45165;-57
2021/10/11 10:38:00;;;;;;;;;5.00;3.00;;;;;20.89;50.72;102394.13;5101936;27;45334;-56
2021/10/11 10:40:29;;;;;;;;;2.25;2.25;;;;;20.95;50.31;102393.94;5101262;27;45609;-56
2021/10/11 10:43:09;;;;;;;;;1.50;1.50;;;;;20.97;49.76;102400.13;5101919;27;45217;-57
2021/10/11 10:45:36;;;;;;;;;2.75;2.75;;;;;21.01;49.96;102393.75;5101975;27;45295;-56
2021/10/11 10:48:14;;;;;;;;;3.00;2.25;;;;;21.04;49.91;102392.78;5083637;27;45522;-57
2021/10/11 10:50:40;;;;;;;;;2.50;2.25;;;;;21.11;49.63;102395.19;5101745;27;45418;-57
2021/10/11 10:53:07;;;;;;;;;2.75;2.00;;;;;21.16;49.63;102392.38;5083471;27;45272;-57
2021/10/11 10:55:35;;;;;;;;;4.00;2.00;;;;;21.20;49.80;102379.78;5101782;27;45275;-57
2021/10/11 10:58:03;;;;;;;;;2.00;2.00;;;;;21.25;49.52;102384.03;5101294;27;45307;-56
2021/10/11 11:00:28;;;;;;;;;2.75;2.00;;;;;21.29;49.75;102395.50;5083261;27;47147;-56
2021/10/11 11:02:54;;;;;;;;;9.50;8.25;;;;;21.30;49.49;102388.38;5101528;27;45343;-56
2021/10/11 11:05:23;;;;;;;;;4.25;2.25;;;;;21.31;49.40;102396.34;5101756;27;45219;-56
2021/10/11 11:07:52;;;;;;;;;3.25;3.25;;;;;21.34;49.31;102401.56;5083132;27;45916;-55
2021/10/11 11:10:20;;;;;;;;;5.25;4.00;;;;;21.33;48.61;102397.16;5101160;27;46992;-55